Time;durP1;ratioP1;P1;durP2;ratioP2;P2;SDS_P1;SDS_P2;PMS_P1;PMS_P2;Temp;Humidity;BMP_temperature;BMP_pressure;BME280_temperature;BME280_humidity;BME280_pressure;Samples;Min_cycle;Max_cycle;Signal;HPM_P1;HPM_P2
2024/02/11 00:01:42;;;;;;;25.90;16.60;;;;;;;5.59;60.95;99645.05;108634;1254;60093;-56
2024/02/11 00:04:09;;;;;;;10.80;4.00;;;;;;;5.56;60.97;99646.10;108105;1254;63662;-57
2024/02/11 00:06:37;;;;;;;12.20;4.50;;;;;;;5.60;61.05;99646.69;104337;1259;72651;-56
2024/02/11 00:09:05;;;;;;;12.20;4.40;;;;;;;5.66;60.94;99641.23;104187;1257;63738;-55
2024/02/11 00:11:33;;;;;;;13.00;4.60;;;;;;;5.74;60.88;99644.49;104241;1259;62019;-56
2024/02/11 00:14:01;;;;;;;14.00;5.20;;;;;;;5.82;60.79;99651.61;104145;1254;60952;-57
2024/02/11 00:16:30;;;;;;;13.80;5.40;;;;;;;5.83;60.84;99648.70;104154;1257;63621;-56
2024/02/11 00:18:57;;;;;;;15.60;7.30;;;;;;;5.84;60.80;99645.14;104755;1257;60520;-57
2024/02/11 00:21:25;;;;;;;16.70;7.00;;;;;;;5.82;60.80;99638.52;104348;1259;62535;-57
2024/02/11 00:23:53;;;;;;;17.60;8.50;;;;;;;5.79;60.79;99635.44;104247;1255;60520;-56
2024/02/11 00:26:21;;;;;;;14.20;6.50;;;;;;;5.75;60.85;99629.84;104275;1254;60539;-55
2024/02/11 00:28:48;;;;;;;16.30;6.30;;;;;;;5.69;60.73;99626.91;104224;1254;64198;-56
2024/02/11 00:31:16;;;;;;;14.40;7.10;;;;;;;5.64;60.93;99627.66;104146;1260;61347;-56
2024/02/11 00:33:44;;;;;;;14.60;6.00;;;;;;;5.57;60.97;99633.48;104183;1254;64750;-56
2024/02/11 00:36:12;;;;;;;15.90;6.60;;;;;;;5.51;61.05;99626.80;107933;1256;60542;-56
2024/02/11 00:38:40;;;;;;;15.90;6.00;;;;;;;5.48;61.18;99625.12;104207;1254;60597;-59
2024/02/11 00:41:08;;;;;;;22.40;7.40;;;;;;;5.42;61.13;99626.42;104272;1254;63640;-59
2024/02/11 00:43:37;;;;;;;14.00;6.70;;;;;;;5.37;61.28;99631.65;104125;1254;61397;-60
2024/02/11 00:46:07;;;;;;;11.30;4.10;;;;;;;5.37;61.11;99630.89;104146;1254;63760;-60
2024/02/11 00:48:35;;;;;;;13.00;5.70;;;;;;;5.41;61.03;99628.38;104047;1256;60817;-57
2024/02/11 00:51:03;;;;;;;10.40;4.20;;;;;;;5.45;61.04;99623.25;104180;1254;59516;-58
2024/02/11 00:53:30;;;;;;;11.00;4.30;;;;;;;5.51;60.98;99620.04;108662;1254;65795;-59
2024/02/11 00:55:58;;;;;;;11.30;4.80;;;;;;;5.55;61.07;99617.09;108737;1254;63955;-58
2024/02/11 00:58:25;;;;;;;13.50;6.70;;;;;;;5.62;61.19;99620.48;107118;1254;62527;-57
2024/02/11 01:00:53;;;;;;;17.50;6.30;;;;;;;5.66;61.20;99624.38;104285;1256;60558;-58
2024/02/11 01:03:21;;;;;;;16.10;6.40;;;;;;;5.66;61.25;99625.93;104173;1254;60534;-58
2024/02/11 01:05:49;;;;;;;12.90;6.20;;;;;;;5.63;61.29;99628.42;104332;1254;63646;-59
2024/02/11 01:08:16;;;;;;;13.80;6.40;;;;;;;5.60;61.24;99633.31;104221;1259;60553;-58
2024/02/11 01:10:44;;;;;;;15.00;5.80;;;;;;;5.58;61.24;99632.94;104370;1257;63678;-59
2024/02/11 01:13:13;;;;;;;13.10;6.00;;;;;;;5.57;61.31;99639.45;104299;1256;60559;-58
2024/02/11 01:15:40;;;;;;;12.20;5.40;;;;;;;5.55;61.36;99641.15;108585;1254;59353;-58
2024/02/11 01:18:10;;;;;;;12.50;5.30;;;;;;;5.50;61.32;99642.20;105446;1254;64849;-58
2024/02/11 01:20:37;;;;;;;12.70;6.50;;;;;;;5.45;61.19;99642.92;104347;1260;60551;-57
2024/02/11 01:23:05;;;;;;;11.90;6.00;;;;;;;5.40;61.33;99642.52;104126;1255;63749;-57
2024/02/11 01:25:33;;;;;;;14.00;7.00;;;;;;;5.37;61.38;99646.41;104220;1254;60718;-58
2024/02/11 01:28:00;;;;;;;12.30;5.80;;;;;;;5.38;61.29;99645.81;104228;1254;60402;-58
2024/02/11 01:30:28;;;;;;;10.80;5.00;;;;;;;5.42;61.15;99641.52;104201;1255;63856;-58
2024/02/11 01:32:57;;;;;;;15.40;3.90;;;;;;;5.47;61.10;99638.22;104150;1253;61375;-57
2024/02/11 01:35:25;;;;;;;13.30;5.70;;;;;;;5.50;61.20;99645.02;108729;1254;64225;-58
2024/02/11 01:37:53;;;;;;;10.30;3.60;;;;;;;5.56;61.35;99643.86;106714;1259;60812;-58
2024/02/11 01:40:21;;;;;;;15.70;6.10;;;;;;;5.63;61.30;99636.77;104213;1254;60585;-58
2024/02/11 01:42:55;;;;;;;9.80;4.50;;;;;;;5.66;61.35;99624.50;108649;1254;64974;-57
2024/02/11 01:45:22;;;;;;;13.00;5.40;;;;;;;5.71;61.49;99624.52;108646;1254;61325;-59
2024/02/11 01:47:50;;;;;;;13.30;5.80;;;;;;;5.73;61.50;99628.00;108616;1254;65916;-59
2024/02/11 01:50:18;;;;;;;16.60;5.90;;;;;;;5.72;61.23;99632.77;105878;1257;63133;-60
2024/02/11 01:52:47;;;;;;;14.30;5.70;;;;;;;5.70;61.23;99634.12;108709;1254;59972;-60
2024/02/11 01:55:18;;;;;;;13.50;5.70;;;;;;;5.69;61.13;99635.66;106135;1259;65975;-58
2024/02/11 01:57:46;;;;;;;11.40;5.40;;;;;;;5.64;61.11;99637.20;107108;1254;60757;-58
2024/02/11 02:00:17;;;;;;;12.90;5.90;;;;;;;5.61;61.16;99638.11;108193;1254;506408;-60
2024/02/11 02:14:21;;;;;;;13.90;6.80;;;;;;;5.64;61.79;99642.98;101948;1287;604985;-60
2024/02/11 02:16:49;;;;;;;22.70;14.10;;;;;;;6.30;60.07;99646.00;103059;1266;140664;-59
2024/02/11 02:19:17;;;;;;;11.90;5.20;;;;;;;6.27;59.95;99650.63;107904;1266;62059;-60
2024/02/11 02:21:46;;;;;;;21.90;12.50;;;;;;;6.25;59.92;99655.25;108004;1266;62013;-59
2024/02/11 02:24:16;;;;;;;8.70;2.80;;;;;;;6.25;59.91;99654.27;107963;1266;60283;-60
2024/02/11 02:26:43;;;;;;;13.70;4.50;;;;;;;6.25;59.81;99648.02;107862;1267;62480;-60
2024/02/11 02:29:11;;;;;;;9.20;4.80;;;;;;;6.23;59.71;99642.21;107942;1267;58923;-61
2024/02/11 02:31:38;;;;;;;11.70;5.50;;;;;;;6.21;59.79;99632.96;104757;1269;59626;-60
2024/02/11 02:34:06;;;;;;;22.70;13.30;;;;;;;6.21;59.94;99632.94;103464;1267;62108;-60
2024/02/11 02:36:35;;;;;;;13.70;6.10;;;;;;;6.18;60.04;99635.22;103382;1272;60234;-60
2024/02/11 02:39:02;;;;;;;22.50;13.60;;;;;;;6.17;60.25;99639.17;103286;1272;64998;-58
2024/02/11 02:41:30;;;;;;;13.30;5.40;;;;;;;6.13;60.37;99637.69;103544;1267;59820;-58
2024/02/11 02:43:58;;;;;;;10.40;4.80;;;;;;;6.08;60.40;99637.21;103488;1266;62087;-58
2024/02/11 02:46:28;;;;;;;15.70;5.80;;;;;;;6.02;60.29;99634.65;108372;1259;64962;-57
2024/02/11 02:48:55;;;;;;;16.40;7.70;;;;;;;5.93;60.55;99628.16;105534;1260;61561;-56
2024/02/11 02:51:23;;;;;;;13.50;5.80;;;;;;;5.83;60.63;99618.48;103949;1259;62476;-56
2024/02/11 02:53:51;;;;;;;15.30;5.50;;;;;;;5.75;60.75;99619.02;103840;1260;59607;-56
2024/02/11 02:56:18;;;;;;;12.60;6.10;;;;;;;5.69;60.73;99625.39;106727;1260;59363;-56
2024/02/11 02:58:46;;;;;;;11.60;4.90;;;;;;;5.67;60.65;99630.05;104129;1259;64212;-57
2024/02/11 03:01:22;;;;;;;12.20;6.60;;;;;;;5.70;60.62;99623.41;103953;1263;62608;-58
2024/02/11 03:03:50;;;;;;;13.10;4.70;;;;;;;5.71;60.58;99625.17;104567;1259;62449;-58
2024/02/11 03:06:18;;;;;;;10.60;4.20;;;;;;;5.74;60.52;99629.01;104076;1263;59663;-58
2024/02/11 03:08:47;;;;;;;11.20;4.10;;;;;;;5.78;60.67;99626.61;103990;1264;59570;-59
2024/02/11 03:11:15;;;;;;;14.90;5.90;;;;;;;5.83;60.70;99624.37;103921;1263;62873;-58
2024/02/11 03:13:43;;;;;;;24.70;16.70;;;;;;;5.84;60.76;99627.58;103949;1259;61335;-57
2024/02/11 03:16:14;;;;;;;13.80;7.20;;;;;;;5.83;60.82;99630.61;103765;1260;62433;-58
2024/02/11 03:18:42;;;;;;;19.30;7.10;;;;;;;5.80;60.73;99631.19;108414;1260;58974;-59
2024/02/11 03:21:10;;;;;;;18.20;7.10;;;;;;;5.78;60.79;99630.61;105104;1261;60321;-56
2024/02/11 03:23:38;;;;;;;17.30;6.30;;;;;;;5.71;60.83;99628.30;103910;1260;65211;-58
2024/02/11 03:26:10;;;;;;;15.80;7.00;;;;;;;5.67;60.96;99627.27;103992;1259;63798;-59
2024/02/11 03:28:38;;;;;;;11.10;4.80;;;;;;;5.63;61.03;99634.13;103871;1262;62517;-55
2024/02/11 03:31:07;;;;;;;18.40;8.40;;;;;;;5.60;61.06;99634.35;105260;1262;59901;-56
2024/02/11 03:33:35;;;;;;;15.90;7.30;;;;;;;5.53;61.07;99629.98;108353;1263;58363;-58
2024/02/11 03:36:03;;;;;;;15.20;5.20;;;;;;;5.49;61.11;99631.98;108423;1260;63167;-58
2024/02/11 03:38:31;;;;;;;14.10;7.30;;;;;;;5.47;61.31;99636.30;108300;1260;60399;-58
2024/02/11 03:40:58;;;;;;;10.80;4.50;;;;;;;5.51;61.13;99639.35;108335;1258;66018;-57
2024/02/11 03:43:26;;;;;;;13.60;6.00;;;;;;;5.56;61.01;99636.38;105358;1259;59778;-54
2024/02/11 03:45:53;;;;;;;14.10;6.00;;;;;;;5.61;61.01;99632.88;103825;1260;59708;-54
2024/02/11 03:48:21;;;;;;;15.30;6.30;;;;;;;5.68;61.08;99632.39;108177;1260;65023;-55
2024/02/11 03:50:49;;;;;;;13.10;5.90;;;;;;;5.78;61.13;99632.86;108330;1260;61304;-56
2024/02/11 03:53:20;;;;;;;16.30;6.90;;;;;;;5.88;61.11;99629.06;108398;1260;63897;-56
2024/02/11 03:55:48;;;;;;;13.90;6.00;;;;;;;5.91;61.08;99627.41;104785;1262;59928;-55
2024/02/11 03:58:16;;;;;;;14.50;5.80;;;;;;;5.93;61.12;99622.61;104223;1260;59757;-53
2024/02/11 04:00:44;;;;;;;19.40;8.40;;;;;;;5.92;61.10;99619.91;108396;1259;62864;-54
2024/02/11 04:03:14;;;;;;;15.30;7.10;;;;;;;5.91;61.06;99625.85;107813;1260;60121;-55
2024/02/11 04:05:43;;;;;;;16.30;7.60;;;;;;;5.90;60.89;99633.80;103799;1261;64844;-55
2024/02/11 04:08:12;;;;;;;13.60;6.50;;;;;;;5.83;60.81;99635.34;108359;1260;58786;-56
2024/02/11 04:10:40;;;;;;;18.30;7.60;;;;;;;5.77;60.83;99625.27;108321;1259;59409;-56
2024/02/11 04:13:12;;;;;;;18.30;8.30;;;;;;;5.73;61.00;99622.45;106995;1260;71708;-54
2024/02/11 04:15:39;;;;;;;16.70;9.40;;;;;;;5.69;60.98;99625.04;103879;1260;61858;-54
2024/02/11 04:18:07;;;;;;;14.80;6.80;;;;;;;5.66;61.02;99622.42;103844;1259;63864;-55
2024/02/11 04:20:36;;;;;;;20.10;7.80;;;;;;;5.63;61.08;99621.61;106106;1260;59608;-54
2024/02/11 04:23:04;;;;;;;16.20;6.40;;;;;;;5.65;60.87;99619.75;105995;1260;60323;-55
2024/02/11 04:25:36;;;;;;;15.50;7.40;;;;;;;5.71;60.95;99616.52;108263;1258;64197;-57
2024/02/11 04:28:08;;;;;;;17.30;6.40;;;;;;;5.78;60.91;99617.77;104557;1260;61341;-56
2024/02/11 04:30:38;;;;;;;15.10;4.40;;;;;;;5.85;60.89;99619.16;108320;1259;62556;-57
2024/02/11 04:33:06;;;;;;;11.80;5.70;;;;;;;5.88;60.68;99620.70;108316;1260;57687;-56
2024/02/11 04:35:35;;;;;;;15.20;5.30;;;;;;;5.89;60.62;99616.96;105087;1260;61862;-55
2024/02/11 04:38:11;;;;;;;18.40;8.00;;;;;;;5.92;60.89;99622.66;107158;1260;62917;-56
2024/02/11 04:40:41;;;;;;;16.70;6.50;;;;;;;5.91;60.87;99630.55;103947;1260;61873;-57
2024/02/11 04:43:10;;;;;;;15.60;7.20;;;;;;;5.93;60.97;99631.09;108386;1259;64236;-58
2024/02/11 04:45:37;;;;;;;13.00;5.80;;;;;;;5.93;60.90;99634.05;108391;1260;59118;-57
2024/02/11 04:48:06;;;;;;;19.30;6.40;;;;;;;5.90;60.83;99639.86;108352;1260;59661;-58
2024/02/11 04:50:34;;;;;;;20.00;8.70;;;;;;;5.87;60.75;99642.17;108289;1259;62928;-58
2024/02/11 04:53:07;;;;;;;15.50;7.30;;;;;;;5.84;60.78;99638.40;107959;1261;60116;-57
2024/02/11 04:55:43;;;;;;;17.80;6.90;;;;;;;5.79;60.71;99634.04;108255;1259;66330;-59
2024/02/11 04:58:14;;;;;;;11.90;6.40;;;;;;;5.73;60.72;99636.92;106996;1260;59234;-56
2024/02/11 05:00:49;;;;;;;17.00;5.00;;;;;;;5.67;60.84;99637.67;103744;1260;60136;-57
2024/02/11 05:03:20;;;;;;;14.90;5.50;;;;;;;5.66;60.84;99643.35;105666;1260;75977;-57
2024/02/11 05:05:49;;;;;;;13.80;5.20;;;;;;;5.65;60.75;99636.40;108310;1264;60101;-56
2024/02/11 05:08:19;;;;;;;17.60;6.60;;;;;;;5.69;60.68;99639.25;108429;1260;63718;-58
2024/02/11 05:10:51;;;;;;;12.70;5.10;;;;;;;5.76;60.69;99643.66;108280;1260;59540;-58
2024/02/11 05:13:22;;;;;;;12.30;4.80;;;;;;;5.82;60.65;99639.95;108368;1259;58775;-57
2024/02/11 05:15:50;;;;;;;17.40;5.10;;;;;;;5.88;60.84;99639.98;108174;1259;64199;-58
2024/02/11 05:18:18;;;;;;;10.40;5.10;;;;;;;5.97;60.93;99646.49;108339;1259;61824;-60
2024/02/11 05:20:47;;;;;;;18.60;7.70;;;;;;;6.00;60.75;99654.30;108323;1259;62454;-59
2024/02/11 05:23:15;;;;;;;16.00;6.00;;;;;;;5.99;60.72;99658.59;108320;1259;60059;-60
2024/02/11 05:25:44;;;;;;;36.40;17.90;;;;;;;5.98;60.76;99651.83;104785;1260;59772;-60
2024/02/11 05:28:14;;;;;;;14.40;6.70;;;;;;;5.96;60.75;99651.13;103872;1260;64157;-59
2024/02/11 05:30:43;;;;;;;18.20;8.30;;;;;;;5.92;60.82;99658.81;103968;1260;63616;-57
2024/02/11 05:33:17;;;;;;;17.10;6.70;;;;;;;5.85;60.72;99661.63;107553;1263;64835;-59
2024/02/11 05:35:46;;;;;;;14.70;6.90;;;;;;;5.78;60.73;99661.77;105131;1256;59736;-60
2024/02/11 05:38:14;;;;;;;13.30;5.30;;;;;;;5.71;60.74;99662.46;104681;1257;59759;-60
2024/02/11 05:40:45;;;;;;;17.10;7.20;;;;;;;5.64;60.75;99660.52;104728;1260;64105;-60
2024/02/11 05:43:15;;;;;;;14.00;5.30;;;;;;;5.55;60.77;99666.40;104913;1256;60263;-60
2024/02/11 05:45:43;;;;;;;16.00;8.10;;;;;;;5.48;61.09;99666.37;104808;1259;62530;-60
2024/02/11 05:48:12;;;;;;;13.50;5.70;;;;;;;5.49;61.16;99665.39;104829;1260;61349;-61
2024/02/11 05:50:44;;;;;;;18.40;6.50;;;;;;;5.55;61.17;99660.25;108454;1257;57626;-60
2024/02/11 05:53:12;;;;;;;14.00;5.80;;;;;;;5.63;61.19;99662.99;104885;1259;73147;-59
2024/02/11 05:55:40;;;;;;;16.00;6.10;;;;;;;5.70;61.19;99664.62;104786;1261;61246;-60
2024/02/11 05:58:08;;;;;;;11.80;4.40;;;;;;;5.79;61.26;99668.53;108506;1257;63822;-61
2024/02/11 06:00:42;;;;;;;13.00;5.40;;;;;;;5.86;61.37;99668.33;105111;1259;59605;-60
2024/02/11 06:03:11;;;;;;;29.70;16.90;;;;;;;5.92;61.26;99666.49;104357;1257;60100;-53
2024/02/11 06:05:40;;;;;;;14.60;6.20;;;;;;;5.94;61.27;99666.53;104112;1257;73596;-57
2024/02/11 06:08:09;;;;;;;15.40;6.90;;;;;;;5.94;61.21;99665.70;103995;1257;60135;-57
2024/02/11 06:10:39;;;;;;;16.50;6.50;;;;;;;5.92;61.21;99660.61;104356;1257;62491;-57
2024/02/11 06:13:08;;;;;;;13.60;7.70;;;;;;;5.89;61.21;99660.30;103988;1257;61495;-56
2024/02/11 06:15:37;;;;;;;14.90;6.30;;;;;;;5.86;61.12;99659.67;107173;1260;60006;-57
2024/02/11 06:18:06;;;;;;;15.10;6.50;;;;;;;5.81;61.08;99658.61;108447;1257;62855;-67
2024/02/11 06:20:35;;;;;;;15.00;6.50;;;;;;;5.76;61.06;99656.56;106802;1257;62508;-58
2024/02/11 06:23:05;;;;;;;15.70;7.10;;;;;;;5.71;61.15;99653.39;104376;1257;63733;-64
2024/02/11 06:25:33;;;;;;;15.20;6.90;;;;;;;5.66;61.17;99641.73;104163;1257;60457;-59
2024/02/11 06:28:04;;;;;;;13.20;6.80;;;;;;;5.61;61.29;99638.30;104789;1256;60415;-59
2024/02/11 06:30:32;;;;;;;13.10;5.00;;;;;;;5.63;61.41;99633.95;108456;1257;63703;-64
2024/02/11 06:33:00;;;;;;;9.30;3.90;;;;;;;5.71;61.32;99631.80;108446;1260;60417;-64
2024/02/11 06:35:29;;;;;;;12.10;3.90;;;;;;;5.79;61.35;99629.02;108494;1257;64924;-64
2024/02/11 06:37:59;;;;;;;16.20;5.60;;;;;;;5.87;61.40;99627.39;106279;1257;60569;-62
2024/02/11 06:40:28;;;;;;;12.00;5.20;;;;;;;5.95;61.36;99623.52;105528;1259;60399;-61
2024/02/11 06:42:59;;;;;;;26.40;15.70;;;;;;;6.02;61.39;99624.40;105038;1256;65698;-62
2024/02/11 06:45:28;;;;;;;10.20;4.90;;;;;;;6.10;61.41;99632.13;104028;1256;61868;-62
2024/02/11 06:47:57;;;;;;;16.30;6.40;;;;;;;6.14;61.30;99629.74;104030;1257;64289;-56
2024/02/11 06:50:25;;;;;;;15.40;7.10;;;;;;;6.14;61.20;99633.46;104250;1256;60537;-55
2024/02/11 06:52:53;;;;;;;24.10;15.70;;;;;;;6.11;61.28;99635.41;104249;1256;60390;-55
2024/02/11 06:55:21;;;;;;;13.50;7.20;;;;;;;6.10;61.23;99638.59;108503;1256;63641;-55
2024/02/11 06:57:49;;;;;;;13.10;5.40;;;;;;;6.07;61.00;99637.77;106514;1257;62847;-57
2024/02/11 07:00:18;;;;;;;13.60;6.80;;;;;;;6.03;61.03;99637.00;108624;1257;63980;-67
2024/02/11 07:02:52;;;;;;;14.10;6.20;;;;;;;6.00;61.06;99630.45;104915;1256;60801;-59
2024/02/11 07:05:22;;;;;;;13.70;5.80;;;;;;;5.97;61.06;99631.17;105162;1256;60344;-65
2024/02/11 07:07:50;;;;;;;16.60;6.30;;;;;;;5.94;61.11;99630.84;108493;1256;65850;-67
2024/02/11 07:10:23;;;;;;;11.60;4.90;;;;;;;5.92;61.21;99630.14;108738;1256;61297;-68
2024/02/11 07:12:51;;;;;;;12.70;4.10;;;;;;;5.95;61.06;99632.87;105639;1256;62450;-68
2024/02/11 07:15:19;;;;;;;11.90;4.30;;;;;;;6.01;60.88;99640.15;104142;1257;60578;-67
2024/02/11 07:17:47;;;;;;;21.40;14.30;;;;;;;6.07;60.91;99649.33;108483;1257;58157;-69
2024/02/11 07:20:14;;;;;;;13.60;4.50;;;;;;;6.13;61.07;99652.48;108520;1257;63766;-69
2024/02/11 07:22:45;;;;;;;13.90;5.90;;;;;;;6.24;61.06;99656.57;108549;1256;60558;-69
2024/02/11 07:25:16;;;;;;;16.70;7.80;;;;;;;6.31;61.06;99664.59;106240;1256;63772;-67
2024/02/11 07:27:45;;;;;;;18.90;7.50;;;;;;;6.31;61.05;99669.67;108486;1257;59800;-68
2024/02/11 07:30:13;;;;;;;12.80;6.70;;;;;;;6.30;60.96;99675.81;108522;1256;58411;-69
2024/02/11 07:32:44;;;;;;;15.70;5.70;;;;;;;6.30;61.05;99679.14;108423;1259;65272;-65
2024/02/11 07:35:15;;;;;;;12.00;5.70;;;;;;;6.27;60.96;99683.16;108470;1257;62447;-62
2024/02/11 07:37:44;;;;;;;23.80;15.00;;;;;;;6.28;61.14;99686.40;108450;1257;63736;-61
2024/02/11 07:40:14;;;;;;;10.50;4.60;;;;;;;6.31;61.11;99683.57;108650;1255;59991;-61
2024/02/11 07:42:43;;;;;;;9.40;4.10;;;;;;;6.38;60.80;99681.17;108680;1256;60193;-60
2024/02/11 07:45:14;;;;;;;10.60;4.20;;;;;;;6.42;60.44;99678.44;108516;1256;63765;-61
2024/02/11 07:47:45;;;;;;;17.60;11.10;;;;;;;6.45;60.51;99682.23;108456;1256;61562;-68
2024/02/11 07:50:14;;;;;;;8.90;4.60;;;;;;;6.51;60.58;99678.46;108523;1256;65856;-73
2024/02/11 07:52:46;;;;;;;12.80;6.00;;;;;;;6.56;60.67;99675.29;108643;1255;60165;-67
2024/02/11 07:55:16;;;;;;;19.60;13.70;;;;;;;6.60;60.89;99672.20;106871;1257;60604;-71
2024/02/11 07:57:43;;;;;;;12.60;5.10;;;;;;;6.65;60.98;99675.48;105406;1256;63735;-64
2024/02/11 08:00:15;;;;;;;13.20;7.20;;;;;;;6.67;60.86;99676.73;104131;1256;60483;-62
2024/02/11 08:02:43;;;;;;;11.60;5.00;;;;;;;6.65;60.84;99681.22;104152;1257;66236;-60
2024/02/11 08:05:12;;;;;;;11.80;4.30;;;;;;;6.59;60.59;99683.41;104304;1255;61255;-65
2024/02/11 08:07:39;;;;;;;22.00;13.80;;;;;;;6.53;60.66;99693.84;104030;1258;61404;-63
2024/02/11 08:10:09;;;;;;;12.30;4.60;;;;;;;6.47;60.70;99698.79;104487;1258;64949;-64
2024/02/11 08:12:36;;;;;;;10.80;4.20;;;;;;;6.46;60.64;99700.59;108646;1256;62381;-68
2024/02/11 08:15:04;;;;;;;12.50;6.00;;;;;;;6.49;60.49;99696.70;108490;1259;62480;-69
2024/02/11 08:17:32;;;;;;;21.20;12.20;;;;;;;6.52;60.48;99692.34;108532;1257;63035;-71
2024/02/11 08:20:00;;;;;;;19.90;8.90;;;;;;;6.55;60.55;99690.02;106514;1259;61728;-64
2024/02/11 08:22:28;;;;;;;13.60;6.40;;;;;;;6.59;60.72;99689.38;106519;1256;63874;-68
2024/02/11 08:24:55;;;;;;;15.20;7.60;;;;;;;6.63;60.90;99690.30;104055;1258;62005;-68
2024/02/11 08:27:23;;;;;;;20.40;12.90;;;;;;;6.61;60.98;99689.52;104198;1257;67014;-68
2024/02/11 08:29:52;;;;;;;15.80;6.50;;;;;;;6.59;60.98;99689.71;104301;1257;59496;-63
2024/02/11 08:32:20;;;;;;;14.50;5.90;;;;;;;6.57;61.05;99692.31;104078;1256;62769;-65
2024/02/11 08:34:48;;;;;;;16.00;6.00;;;;;;;6.55;61.07;99687.80;108411;1256;64020;-62
2024/02/11 08:37:15;;;;;;;15.10;5.80;;;;;;;6.52;61.08;99687.06;105923;1256;61036;-68
2024/02/11 08:39:43;;;;;;;14.20;5.50;;;;;;;6.49;61.18;99689.20;104103;1257;72679;-70
2024/02/11 08:42:11;;;;;;;22.20;13.80;;;;;;;6.49;61.19;99689.95;104297;1254;60391;-67
2024/02/11 08:44:39;;;;;;;12.70;5.10;;;;;;;6.48;61.28;99689.48;106106;1256;60887;-61
2024/02/11 08:47:09;;;;;;;13.40;4.30;;;;;;;6.55;61.20;99692.09;108613;1257;65033;-63
2024/02/11 08:49:37;;;;;;;12.70;4.80;;;;;;;6.63;60.93;99693.73;108516;1260;63803;-68
2024/02/11 08:52:05;;;;;;;16.00;6.80;;;;;;;6.70;60.80;99688.90;108677;1254;63894;-67
2024/02/11 08:54:36;;;;;;;22.10;12.80;;;;;;;6.78;60.78;99691.23;108621;1256;59658;-66
2024/02/11 08:57:04;;;;;;;13.10;5.90;;;;;;;6.89;60.75;99689.79;108269;1257;59926;-67
2024/02/11 08:59:31;;;;;;;18.30;12.80;;;;;;;6.94;60.79;99689.86;104280;1257;64916;-68
2024/02/11 09:02:00;;;;;;;10.40;5.10;;;;;;;6.99;60.82;99690.91;104085;1256;61848;-69
2024/02/11 09:04:28;;;;;;;21.40;13.00;;;;;;;7.02;60.77;99692.96;104034;1257;62530;-68
2024/02/11 09:06:56;;;;;;;11.90;5.20;;;;;;;7.04;60.68;99694.39;104248;1256;60517;-69
2024/02/11 09:09:27;;;;;;;13.90;5.80;;;;;;;7.02;60.54;99699.05;104921;1256;60688;-71
2024/02/11 09:11:58;;;;;;;11.80;5.60;;;;;;;6.99;60.60;99705.04;106762;1255;67021;-66
2024/02/11 09:14:27;;;;;;;21.40;12.90;;;;;;;6.97;60.57;99694.72;104172;1256;60449;-68
2024/02/11 09:16:56;;;;;;;12.70;5.30;;;;;;;6.97;60.58;99691.43;107747;1257;62516;-65
2024/02/11 09:19:25;;;;;;;10.80;5.00;;;;;;;7.00;60.52;99689.61;104111;1257;60405;-67
2024/02/11 09:21:54;;;;;;;9.00;4.10;;;;;;;7.08;60.45;99687.27;108541;1257;59833;-71
2024/02/11 09:24:22;;;;;;;8.70;4.00;;;;;;;7.17;60.27;99686.86;106263;1257;65260;-66
2024/02/11 09:26:52;;;;;;;17.80;11.10;;;;;;;7.26;60.16;99689.89;104897;1260;61368;-65
2024/02/11 09:29:21;;;;;;;13.20;5.40;;;;;;;7.31;60.07;99689.86;104295;1256;63714;-63
2024/02/11 09:31:49;;;;;;;16.00;11.40;;;;;;;7.35;60.08;99688.36;108663;1254;58683;-64
2024/02/11 09:34:17;;;;;;;10.10;5.80;;;;;;;7.38;60.19;99685.27;108548;1257;61420;-63
2024/02/11 09:36:45;;;;;;;17.40;12.10;;;;;;;7.40;60.00;99683.53;108622;1257;63737;-68
2024/02/11 09:39:13;;;;;;;10.10;4.20;;;;;;;7.43;59.93;99675.63;107107;1260;60563;-65
2024/02/11 09:41:40;;;;;;;10.80;5.50;;;;;;;7.48;59.97;99673.20;108657;1257;75025;-68
2024/02/11 09:44:08;;;;;;;16.20;11.00;;;;;;;7.53;59.94;99674.05;105680;1257;60532;-68
2024/02/11 09:46:36;;;;;;;11.60;4.80;;;;;;;7.55;59.88;99678.72;104276;1255;60505;-68
2024/02/11 09:49:05;;;;;;;17.10;11.70;;;;;;;7.58;59.87;99684.98;104209;1257;63636;-72
2024/02/11 09:51:32;;;;;;;12.20;5.00;;;;;;;7.59;59.66;99686.30;108508;1254;61295;-72
2024/02/11 09:54:00;;;;;;;15.20;10.50;;;;;;;7.59;59.39;99688.02;105629;1259;65290;-70
2024/02/11 09:56:28;;;;;;;10.40;4.00;;;;;;;7.59;59.23;99688.67;104229;1257;60594;-70
2024/02/11 09:58:57;;;;;;;7.50;3.00;;;;;;;7.64;59.34;99687.13;108645;1257;58967;-68
2024/02/11 10:01:25;;;;;;;18.00;11.00;;;;;;;7.69;59.26;99677.98;108530;1256;66434;-72
2024/02/11 10:03:57;;;;;;;15.80;10.50;;;;;;;7.71;59.22;99678.57;108592;1255;63799;-68
2024/02/11 10:06:27;;;;;;;12.20;5.70;;;;;;;7.71;59.29;99675.08;105795;1257;66491;-65
2024/02/11 10:08:58;;;;;;;16.50;11.50;;;;;;;7.72;59.20;99669.25;108420;1257;59624;-62
2024/02/11 10:11:29;;;;;;;15.90;5.60;;;;;;;7.69;59.08;99653.58;108559;1257;60661;-61
2024/02/11 10:13:59;;;;;;;17.60;11.60;;;;;;;7.65;59.06;99653.50;105600;1257;64993;-62
2024/02/11 10:16:28;;;;;;;11.90;4.90;;;;;;;7.63;59.26;99654.19;105261;1258;71262;-62
2024/02/11 10:18:58;;;;;;;17.30;12.20;;;;;;;7.60;59.17;99649.04;108725;1255;66105;-71
2024/02/11 10:21:27;;;;;;;7.10;3.70;;;;;;;7.58;59.24;99646.35;105739;1259;60562;-65
2024/02/11 10:23:54;;;;;;;10.30;4.00;;;;;;;7.64;59.34;99652.85;104205;1257;60950;-65
2024/02/11 10:26:22;;;;;;;15.10;10.70;;;;;;;7.73;59.30;99655.52;104169;1260;63709;-67
2024/02/11 10:28:50;;;;;;;9.10;3.20;;;;;;;7.81;59.31;99652.39;104382;1263;60457;-66
2024/02/11 10:31:18;;;;;;;18.20;10.90;;;;;;;7.89;59.14;99644.23;108608;1260;65513;-66
2024/02/11 10:33:46;;;;;;;9.90;4.90;;;;;;;7.90;59.02;99635.29;105461;1257;59340;-60
2024/02/11 10:36:14;;;;;;;15.50;10.90;;;;;;;7.87;58.92;99630.44;104153;1259;61093;-55
2024/02/11 10:38:42;;;;;;;7.60;3.90;;;;;;;7.82;58.91;99625.98;104134;1262;66365;-57
2024/02/11 10:41:10;;;;;;;9.80;4.40;;;;;;;7.80;59.07;99627.84;104315;1256;62286;-58
2024/02/11 10:43:38;;;;;;;16.00;10.50;;;;;;;7.81;59.04;99635.32;104364;1257;64322;-58
2024/02/11 10:46:07;;;;;;;9.60;4.80;;;;;;;7.82;59.05;99631.90;104370;1255;60447;-57
2024/02/11 10:48:34;;;;;;;12.00;4.70;;;;;;;7.87;58.96;99625.25;105355;1260;59682;-60
2024/02/11 10:51:09;;;;;;;14.90;9.60;;;;;;;7.93;58.91;99623.86;104456;1257;64240;-60
2024/02/11 10:53:37;;;;;;;9.90;4.20;;;;;;;8.01;58.77;99631.44;108533;1256;61797;-58
2024/02/11 10:56:09;;;;;;;16.30;10.80;;;;;;;8.04;58.72;99628.39;107342;1257;64695;-57
2024/02/11 10:59:00;;;;;;;9.70;5.40;;;;;;;8.07;58.84;99624.67;104816;1257;60646;-56
2024/02/11 11:01:28;;;;;;;19.50;13.00;;;;;;;8.12;58.88;99624.13;108446;1257;58448;-59
2024/02/11 11:03:56;;;;;;;11.50;5.90;;;;;;;8.16;58.64;99632.29;108583;1256;67377;-60
2024/02/11 11:06:24;;;;;;;13.90;5.50;;;;;;;8.16;58.53;99635.61;108484;1257;62451;-59
2024/02/11 11:08:52;;;;;;;20.80;13.90;;;;;;;8.13;58.35;99637.95;105074;1256;77145;-59
2024/02/11 11:11:27;;;;;;;15.10;6.50;;;;;;;8.09;58.13;99640.08;104315;1261;62265;-58
2024/02/11 11:13:58;;;;;;;9.80;5.50;;;;;;;8.07;58.12;99635.66;108545;1255;58896;-59
2024/02/11 11:16:33;;;;;;;20.30;13.20;;;;;;;8.09;58.12;99629.74;108547;1257;63903;-59
2024/02/11 11:19:02;;;;;;;10.00;5.90;;;;;;;8.15;58.08;99630.77;108584;1256;61607;-59
2024/02/11 11:21:30;;;;;;;19.80;14.10;;;;;;;8.17;57.99;99627.34;108371;1254;64836;-59
2024/02/11 11:23:59;;;;;;;20.40;14.50;;;;;;;8.18;58.09;99627.25;108544;1256;59166;-57
2024/02/11 11:26:28;;;;;;;12.30;5.90;;;;;;;8.19;58.05;99627.54;108566;1255;58872;-57
2024/02/11 11:29:03;;;;;;;15.30;8.10;;;;;;;8.16;57.73;99632.30;105972;1258;66197;-58
2024/02/11 11:31:34;;;;;;;13.10;6.20;;;;;;;8.07;57.52;99636.56;108547;1257;73037;-58
2024/02/11 11:34:02;;;;;;;22.30;15.80;;;;;;;7.96;57.57;99638.48;104852;1257;63672;-56
2024/02/11 11:36:29;;;;;;;22.20;16.80;;;;;;;7.87;57.65;99632.91;104230;1259;59244;-57
2024/02/11 11:39:07;;;;;;;16.00;6.90;;;;;;;7.80;57.72;99640.98;104316;1254;60924;-54
2024/02/11 11:41:34;;;;;;;14.60;5.60;;;;;;;7.78;57.94;99645.85;104330;1257;65061;-56
2024/02/11 11:44:02;;;;;;;11.00;4.50;;;;;;;7.79;57.92;99635.98;104278;1257;61974;-53